Hauptseite
METAR-TAF:

METAR-TAF

Flughäfen :

Fliegerhorst Hinterstoisser

Zeltweg, Österreich

Breite: 47-12N, Länge: 014-45E, Höhe: 677 m

Beobachtung

Neuester Wetterbericht von vor 32 Minuten, um 06:20 UTC
Windstille
Temperatur -4°C
Luftfeuchtigkeit 86%
Luftdruck 1032 hPa
Himmel klar

METAR: LOXZ 010620Z 00000KT 50KM SKC M04/M06 Q1032 NOSIG

Zeit: 07:52 (06:52 UTC)

Prognose

Neuester Wetterbericht von vor 37 Minuten, um 06:15 UTC
Gültige Prognose vom 01 um 06 UTC bis 01 um 15 UTC
Wind 3 kt aus unterschiedlichen Richtungen
Sichtweite 10 km oder mehr
Himmel klar

TAF: LOXZ 010615Z 0106/0115 VRB03KT 9999 SKC

Wetterbeobachtungen und Prognosen von mehr als 4000 Flughäfen (METAR und TAF Bericht).

Die verfügbaren Stationen werden durch gelbe und rote Markierungen auf der Karte dargestellt.

Führen Sie die Maus auf sie, um den Namen der Station zu sehen.

Darauf klicken, um die Beobachtung von Wetterbeobachtungen und Prognosen zu sehen.

Um die Karte zu ändern : klicken Sie auf den grünen Tasten mit einem schwarzen Kreuz Zum Vergrößern, auf den grünen Button mit einem Gedankenstrich zu verkleinern, oder auf die grünen Pfeile für benachbarte Karten.


METAR-TAF: